Time;durP1;ratioP1;P1;durP2;ratioP2;P2;SDS_P1;SDS_P2;PMS_P1;PMS_P2;Temp;Humidity;BMP_temperature;BMP_pressure;BME280_temperature;BME280_humidity;BME280_pressure;Samples;Min_cycle;Max_cycle;Signal;HPM_P1;HPM_P2
2021/03/08 00:02:11;;;;;;;39.77;22.07;;;;;;;;;;5056856;28;20470;-81
2021/03/08 00:04:37;;;;;;;32.63;19.83;;;;;;;;;;5078163;23;21606;-72
2021/03/08 00:07:03;;;;;;;34.50;21.13;;;;;;;;;;5087879;28;20432;-73
2021/03/08 00:09:30;;;;;;;40.87;21.17;;;;;;;;;;5093448;28;20393;-73
2021/03/08 00:11:56;;;;;;;33.53;21.27;;;;;;;;;;5092262;28;20892;-74
2021/03/08 00:14:22;;;;;;;35.37;21.80;;;;;;;;;;5092897;28;20433;-74
2021/03/08 00:16:48;;;;;;;36.50;20.50;;;;;;;;;;5093415;28;20437;-74
2021/03/08 00:19:14;;;;;;;37.60;20.87;;;;;;;;;;5090896;28;20888;-74
2021/03/08 00:21:40;;;;;;;34.40;21.33;;;;;;;;;;5093045;28;20479;-74
2021/03/08 00:24:06;;;;;;;37.63;21.70;;;;;;;;;;5092104;28;20492;-74
2021/03/08 00:26:32;;;;;;;39.40;22.53;;;;;;;;;;5093144;28;20873;-74
2021/03/08 00:28:58;;;;;;;39.80;21.97;;;;;;;;;;5090800;28;20416;-73
2021/03/08 00:31:24;;;;;;;35.27;20.43;;;;;;;;;;5071668;28;20488;-73
2021/03/08 00:33:50;;;;;;;38.00;22.77;;;;;;;;;;5087058;28;20525;-73
2021/03/08 00:36:16;;;;;;;34.20;21.27;;;;;;;;;;5092901;28;20745;-74
2021/03/08 00:38:42;;;;;;;32.00;20.10;;;;;;;;;;5091758;28;20481;-73
2021/03/08 00:41:08;;;;;;;33.43;20.53;;;;;;;;;;5092554;28;20409;-74
2021/03/08 00:43:34;;;;;;;38.97;20.37;;;;;;;;;;5091879;28;21038;-73
2021/03/08 00:46:00;;;;;;;40.13;21.60;;;;;;;;;;5078562;28;20500;-74
2021/03/08 00:48:26;;;;;;;33.50;20.03;;;;;;;;;;5095967;28;20417;-73
2021/03/08 00:50:52;;;;;;;37.03;20.30;;;;;;;;;;5096556;28;20393;-74
2021/03/08 00:53:18;;;;;;;33.83;19.60;;;;;;;;;;5095277;28;20430;-73
2021/03/08 00:55:44;;;;;;;35.50;19.90;;;;;;;;;;5096410;28;20447;-74
2021/03/08 00:58:10;;;;;;;37.40;21.47;;;;;;;;;;5095270;28;20800;-73
2021/03/08 01:00:36;;;;;;;38.73;21.03;;;;;;;;;;5096331;28;20401;-74
2021/03/08 01:03:02;;;;;;;33.77;21.77;;;;;;;;;;5095043;28;20928;-73
2021/03/08 01:05:28;;;;;;;40.27;22.30;;;;;;;;;;5096004;28;20509;-74
2021/03/08 01:07:54;;;;;;;34.40;21.53;;;;;;;;;;5095259;28;20443;-73
2021/03/08 01:10:22;;;;;;;31.87;20.40;;;;;;;;;;5079142;28;20412;-73
2021/03/08 01:12:48;;;;;;;34.90;19.73;;;;;;;;;;5087759;28;20480;-73
2021/03/08 01:15:14;;;;;;;36.20;20.23;;;;;;;;;;5095914;28;20922;-74
2021/03/08 01:17:40;;;;;;;37.80;20.70;;;;;;;;;;5095141;28;20779;-74
2021/03/08 01:20:08;;;;;;;38.67;21.80;;;;;;;;;;5095814;28;20411;-74
2021/03/08 01:22:34;;;;;;;34.77;20.27;;;;;;;;;;5094733;28;20954;-74
2021/03/08 01:25:00;;;;;;;35.17;22.17;;;;;;;;;;5095714;28;20508;-74
2021/03/08 01:27:26;;;;;;;33.87;19.53;;;;;;;;;;5094697;28;20435;-73
2021/03/08 01:29:52;;;;;;;35.10;20.83;;;;;;;;;;5095610;28;20424;-74
2021/03/08 01:32:18;;;;;;;39.20;22.30;;;;;;;;;;5095384;28;20910;-73
2021/03/08 01:34:44;;;;;;;35.13;19.60;;;;;;;;;;5095039;28;20551;-74
2021/03/08 01:37:10;;;;;;;39.67;21.90;;;;;;;;;;5095451;28;20818;-73
2021/03/08 01:39:36;;;;;;;39.67;19.77;;;;;;;;;;5094629;28;20426;-74
2021/03/08 01:42:02;;;;;;;31.77;19.50;;;;;;;;;;5095227;28;20477;-74
2021/03/08 01:44:28;;;;;;;36.73;19.50;;;;;;;;;;5094315;28;20546;-74
2021/03/08 01:46:54;;;;;;;32.10;19.90;;;;;;;;;;5095032;28;20923;-73
2021/03/08 01:49:20;;;;;;;39.67;20.93;;;;;;;;;;5094480;28;20778;-74
2021/03/08 01:51:46;;;;;;;34.87;21.17;;;;;;;;;;5077090;28;20414;-74
2021/03/08 01:54:12;;;;;;;35.00;21.27;;;;;;;;;;5093928;28;21019;-73
2021/03/08 01:56:39;;;;;;;44.30;21.13;;;;;;;;;;5095399;28;20486;-74
2021/03/08 01:59:05;;;;;;;37.63;21.17;;;;;;;;;;5094228;28;20835;-73
2021/03/08 02:01:31;;;;;;;30.03;17.50;;;;;;;;;;5094255;28;20420;-74
2021/03/08 02:03:57;;;;;;;34.47;18.90;;;;;;;;;;5091925;28;20469;-74
2021/03/08 02:06:23;;;;;;;32.80;20.00;;;;;;;;;;5095140;28;20417;-74
2021/03/08 02:08:49;;;;;;;33.40;21.20;;;;;;;;;;5089557;28;20944;-74
2021/03/08 02:11:15;;;;;;;40.47;19.73;;;;;;;;;;5075011;28;20402;-74
2021/03/08 02:14:03;;;;;;;32.33;19.30;;;;;;;;;;5074825;28;20979;-74
2021/03/08 02:16:36;;;;;;;32.80;18.77;;;;;;;;;;5077287;28;20903;-74
2021/03/08 02:19:04;;;;;;;34.30;18.90;;;;;;;;;;5088148;28;20421;-74
2021/03/08 02:21:30;;;;;;;35.43;20.20;;;;;;;;;;5098696;28;20416;-73
2021/03/08 02:24:06;;;;;;;37.27;19.47;;;;;;;;;;5097458;28;20564;-73
2021/03/08 02:26:36;;;;;;;37.33;22.53;;;;;;;;;;5097461;28;20488;-74
2021/03/08 02:29:02;;;;;;;35.80;20.10;;;;;;;;;;5093829;28;20961;-73
2021/03/08 02:31:29;;;;;;;39.30;19.53;;;;;;;;;;5095021;28;20401;-74
2021/03/08 02:33:57;;;;;;;35.87;22.20;;;;;;;;;;5093872;28;20453;-73
2021/03/08 02:36:25;;;;;;;30.40;17.47;;;;;;;;;;5092422;28;20514;-73
2021/03/08 02:38:55;;;;;;;34.13;19.37;;;;;;;;;;5092291;28;20431;-73
2021/03/08 02:41:22;;;;;;;37.57;21.80;;;;;;;;;;5093153;28;20420;-74
2021/03/08 02:43:52;;;;;;;31.57;19.77;;;;;;;;;;5093284;28;20467;-74
2021/03/08 02:46:28;;;;;;;31.13;17.77;;;;;;;;;;5094514;28;20407;-74
2021/03/08 02:48:56;;;;;;;26.13;16.13;;;;;;;;;;5093552;28;20800;-73
2021/03/08 02:51:23;;;;;;;29.33;17.37;;;;;;;;;;5103526;22;20533;-85
2021/03/08 02:53:50;;;;;;;27.80;15.87;;;;;;;;;;5100862;28;20801;-84
2021/03/08 02:56:21;;;;;;;28.40;17.37;;;;;;;;;;5097951;28;20459;-84
2021/03/08 02:58:51;;;;;;;34.47;20.10;;;;;;;;;;5097204;28;20742;-85
2021/03/08 03:01:19;;;;;;;34.10;19.13;;;;;;;;;;5096514;28;20436;-85
2021/03/08 03:03:47;;;;;;;31.70;18.47;;;;;;;;;;5096598;28;20454;-84
2021/03/08 03:06:14;;;;;;;33.00;18.10;;;;;;;;;;5079221;28;20805;-85
2021/03/08 03:08:41;;;;;;;27.07;17.20;;;;;;;;;;5079973;28;20417;-85
2021/03/08 03:11:08;;;;;;;28.10;16.00;;;;;;;;;;5078247;28;20426;-85
2021/03/08 03:13:36;;;;;;;33.90;18.30;;;;;;;;;;5077893;28;20404;-85
2021/03/08 03:16:02;;;;;;;29.57;17.30;;;;;;;;;;5095038;28;20467;-85
2021/03/08 03:18:29;;;;;;;28.53;16.30;;;;;;;;;;5099650;28;20422;-85
2021/03/08 03:20:56;;;;;;;35.40;17.93;;;;;;;;;;5098389;28;20514;-85
2021/03/08 03:23:23;;;;;;;35.30;18.10;;;;;;;;;;5097499;28;20476;-85
2021/03/08 03:25:49;;;;;;;32.43;18.07;;;;;;;;;;5097155;28;20488;-85
2021/03/08 03:28:16;;;;;;;29.27;18.37;;;;;;;;;;5096923;28;20428;-86
2021/03/08 03:30:42;;;;;;;34.37;17.17;;;;;;;;;;5097323;28;20451;-85
2021/03/08 03:33:09;;;;;;;31.47;17.60;;;;;;;;;;5097856;28;20435;-84
2021/03/08 03:35:35;;;;;;;30.93;17.90;;;;;;;;;;5096871;28;20815;-85
2021/03/08 03:38:02;;;;;;;33.17;18.33;;;;;;;;;;5098484;28;20419;-85
2021/03/08 03:40:28;;;;;;;31.07;18.73;;;;;;;;;;5096854;28;20423;-85
2021/03/08 03:42:54;;;;;;;31.67;18.80;;;;;;;;;;5100079;28;20480;-85
2021/03/08 03:45:21;;;;;;;31.73;17.37;;;;;;;;;;5089910;28;20471;-84
2021/03/08 03:47:47;;;;;;;36.33;19.50;;;;;;;;;;5082647;28;20760;-85
2021/03/08 03:50:15;;;;;;;33.57;18.87;;;;;;;;;;5090356;28;20426;-85
2021/03/08 03:52:41;;;;;;;29.57;18.23;;;;;;;;;;5078663;28;20501;-85
2021/03/08 03:55:09;;;;;;;28.03;18.83;;;;;;;;;;5085561;28;20955;-85
2021/03/08 03:57:46;;;;;;;24.87;17.00;;;;;;;;;;5099492;28;20447;-85
2021/03/08 04:00:13;;;;;;;27.20;17.60;;;;;;;;;;5098031;28;20452;-85
2021/03/08 04:02:44;;;;;;;26.40;17.20;;;;;;;;;;5098391;28;20445;-85
2021/03/08 04:05:11;;;;;;;26.43;17.07;;;;;;;;;;5091199;28;20444;-85
2021/03/08 04:07:40;;;;;;;29.70;17.27;;;;;;;;;;5078760;28;20510;-84
2021/03/08 04:10:08;;;;;;;26.40;18.00;;;;;;;;;;5092747;28;20441;-85
2021/03/08 04:12:34;;;;;;;30.07;17.07;;;;;;;;;;5092244;28;20445;-85
2021/03/08 04:15:20;;;;;;;28.10;16.70;;;;;;;;;;5082720;28;20461;-84
2021/03/08 04:17:47;;;;;;;30.70;16.47;;;;;;;;;;5098108;28;20492;-84
2021/03/08 04:20:16;;;;;;;29.60;16.90;;;;;;;;;;5094346;28;20435;-84
2021/03/08 04:22:44;;;;;;;30.57;17.57;;;;;;;;;;5103852;28;20452;-85
2021/03/08 04:25:11;;;;;;;29.57;15.97;;;;;;;;;;5099761;28;20957;-85
2021/03/08 04:27:37;;;;;;;28.43;16.67;;;;;;;;;;5090519;28;20434;-85
2021/03/08 04:30:04;;;;;;;27.17;15.67;;;;;;;;;;5093283;28;20427;-84
2021/03/08 04:32:30;;;;;;;25.27;15.23;;;;;;;;;;5098020;28;20445;-84
2021/03/08 04:34:56;;;;;;;26.63;17.07;;;;;;;;;;5079492;28;20464;-84
2021/03/08 04:37:22;;;;;;;26.70;15.67;;;;;;;;;;5079602;28;20420;-84
2021/03/08 04:39:51;;;;;;;23.87;15.63;;;;;;;;;;5079538;28;20450;-84
2021/03/08 04:42:17;;;;;;;29.73;16.70;;;;;;;;;;5078904;28;20442;-84
2021/03/08 04:44:45;;;;;;;26.77;14.83;;;;;;;;;;5080006;28;20483;-84
2021/03/08 04:47:11;;;;;;;30.13;14.60;;;;;;;;;;5079193;28;20797;-84
2021/03/08 04:49:40;;;;;;;27.30;17.03;;;;;;;;;;5079595;28;20409;-84
2021/03/08 04:52:07;;;;;;;27.20;15.50;;;;;;;;;;5078518;28;20424;-84
2021/03/08 04:54:34;;;;;;;23.80;14.80;;;;;;;;;;5091419;28;20462;-85
2021/03/08 04:57:01;;;;;;;24.60;16.13;;;;;;;;;;5097831;28;20423;-85
2021/03/08 04:59:27;;;;;;;27.70;16.07;;;;;;;;;;5099037;28;20415;-85
2021/03/08 05:01:54;;;;;;;27.70;16.40;;;;;;;;;;5098886;28;20513;-85
2021/03/08 05:04:22;;;;;;;26.77;15.70;;;;;;;;;;5098924;28;20432;-85
2021/03/08 05:06:48;;;;;;;28.27;15.60;;;;;;;;;;5108313;28;20412;-85
2021/03/08 05:09:15;;;;;;;29.40;16.73;;;;;;;;;;5109903;28;20386;-86
2021/03/08 05:11:43;;;;;;;25.07;15.40;;;;;;;;;;5114220;28;20409;-85
2021/03/08 05:14:10;;;;;;;26.93;16.00;;;;;;;;;;5117895;28;20421;-87
2021/03/08 05:16:38;;;;;;;30.17;15.60;;;;;;;;;;5097739;28;20449;-84
2021/03/08 05:19:05;;;;;;;27.07;16.10;;;;;;;;;;5077961;28;20408;-84
2021/03/08 05:21:32;;;;;;;30.30;18.37;;;;;;;;;;5088899;28;20428;-84
2021/03/08 05:23:59;;;;;;;30.57;15.60;;;;;;;;;;5098148;28;20822;-85
2021/03/08 05:26:26;;;;;;;28.20;18.30;;;;;;;;;;5099000;28;20453;-85
2021/03/08 05:28:53;;;;;;;31.43;18.00;;;;;;;;;;5098997;28;20795;-85
2021/03/08 05:31:20;;;;;;;28.93;17.40;;;;;;;;;;5101373;28;20420;-85
2021/03/08 05:33:48;;;;;;;24.33;15.40;;;;;;;;;;5103209;28;20413;-84
2021/03/08 05:36:14;;;;;;;29.30;16.40;;;;;;;;;;5102028;28;20450;-85
2021/03/08 05:38:41;;;;;;;24.77;15.47;;;;;;;;;;5102535;28;20405;-85
2021/03/08 05:41:24;;;;;;;30.37;17.97;;;;;;;;;;5096486;28;20432;-85
2021/03/08 05:43:53;;;;;;;26.10;16.77;;;;;;;;;;5081064;28;20445;-85
2021/03/08 05:46:37;;;;;;;24.93;16.17;;;;;;;;;;5087069;28;20494;-84
2021/03/08 05:49:18;;;;;;;25.63;16.60;;;;;;;;;;5101838;28;20401;-84
2021/03/08 05:51:53;;;;;;;28.17;15.80;;;;;;;;;;5100932;28;20452;-85
2021/03/08 05:54:38;;;;;;;26.63;16.60;;;;;;;;;;5102509;28;20412;-85
2021/03/08 05:57:18;;;;;;;28.30;17.10;;;;;;;;;;5100880;28;20421;-85
2021/03/08 06:00:02;;;;;;;21.80;13.80;;;;;;;;;;5101050;28;20418;-85
2021/03/08 06:02:47;;;;;;;21.70;13.80;;;;;;;;;;5101173;28;20799;-85
2021/03/08 06:05:25;;;;;;;17.97;12.13;;;;;;;;;;5109495;22;21725;-74
2021/03/08 06:08:03;;;;;;;19.47;11.97;;;;;;;;;;5094716;28;20498;-74
2021/03/08 06:10:33;;;;;;;19.60;13.03;;;;;;;;;;5095325;28;20552;-74
2021/03/08 06:13:01;;;;;;;19.50;13.10;;;;;;;;;;5092972;28;20532;-73
2021/03/08 06:15:29;;;;;;;20.77;13.57;;;;;;;;;;5095611;28;20424;-73
2021/03/08 06:17:55;;;;;;;21.93;14.50;;;;;;;;;;5094340;28;20455;-74
2021/03/08 06:20:21;;;;;;;22.17;14.40;;;;;;;;;;5094122;28;20398;-73
2021/03/08 06:22:48;;;;;;;21.20;12.90;;;;;;;;;;5094239;28;20483;-74
2021/03/08 06:25:15;;;;;;;22.67;12.03;;;;;;;;;;5098049;28;20404;-73
2021/03/08 06:27:44;;;;;;;18.17;11.67;;;;;;;;;;5096366;28;20939;-73
2021/03/08 06:30:11;;;;;;;24.33;12.47;;;;;;;;;;5095535;28;20404;-74
2021/03/08 06:32:37;;;;;;;18.47;11.67;;;;;;;;;;5094301;28;20423;-74
2021/03/08 06:35:03;;;;;;;16.73;11.10;;;;;;;;;;5094381;28;20434;-74
2021/03/08 06:37:30;;;;;;;19.40;11.67;;;;;;;;;;5093833;28;20467;-74
2021/03/08 06:39:56;;;;;;;19.13;11.93;;;;;;;;;;5093901;28;20935;-74
2021/03/08 06:42:22;;;;;;;16.60;10.60;;;;;;;;;;5092956;28;20504;-74
2021/03/08 06:44:49;;;;;;;18.20;11.60;;;;;;;;;;5094967;28;20398;-74
2021/03/08 06:47:15;;;;;;;16.37;11.70;;;;;;;;;;5094178;28;20442;-74
2021/03/08 06:49:41;;;;;;;19.20;10.77;;;;;;;;;;5094943;28;20454;-73
2021/03/08 06:52:08;;;;;;;20.53;12.70;;;;;;;;;;5093659;28;20782;-73
2021/03/08 06:54:41;;;;;;;18.73;11.57;;;;;;;;;;5094629;28;20403;-73
2021/03/08 06:57:26;;;;;;;15.50;10.00;;;;;;;;;;5072129;28;20417;-73
2021/03/08 07:00:12;;;;;;;13.50;9.50;;;;;;;;;;5076539;28;20428;-73
2021/03/08 07:02:42;;;;;;;13.93;10.13;;;;;;;;;;5093359;28;20542;-74
2021/03/08 07:05:10;;;;;;;15.33;10.93;;;;;;;;;;5094489;28;20434;-74
2021/03/08 07:07:48;;;;;;;20.57;10.50;;;;;;;;;;5093547;28;20540;-74
2021/03/08 07:10:14;;;;;;;20.37;11.43;;;;;;;;;;5094262;28;20412;-73
2021/03/08 07:12:53;;;;;;;12.70;9.37;;;;;;;;;;5092491;28;20429;-73
2021/03/08 07:15:19;;;;;;;17.57;11.00;;;;;;;;;;5093368;28;20425;-73
2021/03/08 07:17:45;;;;;;;13.60;9.93;;;;;;;;;;5093469;28;20449;-73
2021/03/08 07:20:13;;;;;;;14.53;9.97;;;;;;;;;;5094136;28;20795;-73
2021/03/08 07:22:47;;;;;;;15.27;9.73;;;;;;;;;;5093096;28;20543;-73
2021/03/08 07:25:17;;;;;;;13.37;9.50;;;;;;;;;;5094292;28;20401;-73
2021/03/08 07:27:44;;;;;;;14.63;9.10;;;;;;;;;;5092869;28;20420;-73
2021/03/08 07:30:11;;;;;;;13.07;9.50;;;;;;;;;;5093826;28;20402;-73
2021/03/08 07:32:38;;;;;;;14.87;9.17;;;;;;;;;;5092939;28;20463;-73
2021/03/08 07:35:04;;;;;;;14.00;9.40;;;;;;;;;;5094084;28;20403;-73
2021/03/08 07:37:42;;;;;;;16.30;8.80;;;;;;;;;;5093165;28;20771;-73
2021/03/08 07:40:08;;;;;;;13.00;9.77;;;;;;;;;;5094319;28;20472;-74
2021/03/08 07:42:44;;;;;;;14.00;10.40;;;;;;;;;;5093679;28;20449;-74
2021/03/08 07:45:10;;;;;;;12.27;8.63;;;;;;;;;;5082529;28;20785;-73
2021/03/08 07:47:36;;;;;;;11.33;9.07;;;;;;;;;;5085357;28;20448;-74
2021/03/08 07:50:22;;;;;;;14.17;9.17;;;;;;;;;;5087419;28;20419;-74
2021/03/08 07:52:48;;;;;;;14.37;9.30;;;;;;;;;;5089179;28;20450;-68
2021/03/08 07:55:14;;;;;;;11.50;8.80;;;;;;;;;;5091717;28;20419;-70
2021/03/08 07:57:41;;;;;;;12.13;9.37;;;;;;;;;;5089910;28;20433;-71
2021/03/08 08:00:08;;;;;;;10.40;9.10;;;;;;;;;;5076714;28;20416;-71
2021/03/08 08:02:34;;;;;;;14.05;9.70;;;;;;;;;;5082151;28;21264;-73
2021/03/08 08:05:00;;;;;;;14.27;9.45;;;;;;;;;;5082929;28;20967;-75
2021/03/08 08:07:26;;;;;;;15.05;9.77;;;;;;;;;;5079996;28;20422;-75
2021/03/08 08:09:53;;;;;;;14.70;9.43;;;;;;;;;;5085457;28;20213;-74
2021/03/08 08:12:25;;;;;;;14.07;10.02;;;;;;;;;;5082866;28;20420;-75
2021/03/08 08:14:51;;;;;;;14.10;10.65;;;;;;;;;;5081613;28;20438;-73
2021/03/08 08:17:21;;;;;;;14.07;10.20;;;;;;;;;;5079352;28;20905;-74
2021/03/08 08:19:49;;;;;;;12.50;9.20;;;;;;;;;;5080690;28;20176;-73
2021/03/08 08:22:22;;;;;;;15.33;7.97;;;;;;;;;;5084110;28;20454;-77
2021/03/08 08:24:49;;;;;;;13.60;9.07;;;;;;;;;;5086765;28;20438;-75
2021/03/08 08:27:16;;;;;;;16.02;9.70;;;;;;;;;;5087652;28;20491;-74
2021/03/08 08:29:42;;;;;;;13.27;9.00;;;;;;;;;;5083816;28;20175;-74
2021/03/08 08:32:09;;;;;;;11.37;8.83;;;;;;;;;;5089719;28;20499;-75
2021/03/08 08:34:39;;;;;;;12.60;9.40;;;;;;;;;;5087124;28;20786;-73
2021/03/08 08:37:18;;;;;;;10.30;7.80;;;;;;;;;;5091166;28;20441;-74
2021/03/08 08:39:53;;;;;;;12.70;9.17;;;;;;;;;;5090104;28;20433;-74
2021/03/08 08:42:26;;;;;;;12.50;8.47;;;;;;;;;;5089382;28;20892;-70
2021/03/08 08:44:55;;;;;;;13.17;9.60;;;;;;;;;;5089771;28;20927;-71
2021/03/08 08:47:24;;;;;;;12.10;7.73;;;;;;;;;;5090119;28;20424;-71
2021/03/08 08:49:53;;;;;;;11.67;8.67;;;;;;;;;;5089787;28;20951;-73
2021/03/08 08:52:39;;;;;;;13.77;8.97;;;;;;;;;;5080348;28;20433;-72
2021/03/08 08:55:06;;;;;;;13.50;9.60;;;;;;;;;;5087861;28;20855;-72
2021/03/08 08:57:32;;;;;;;17.20;9.30;;;;;;;;;;5083993;28;20478;-73
2021/03/08 09:00:28;;;;;;;11.17;8.17;;;;;;;;;;5087224;28;20463;-73
2021/03/08 09:02:54;;;;;;;12.57;9.07;;;;;;;;;;5070449;28;20486;-70
2021/03/08 09:05:29;;;;;;;15.30;10.03;;;;;;;;;;5088579;28;20702;-71
2021/03/08 09:08:14;;;;;;;9.90;8.17;;;;;;;;;;5092097;28;20440;-70
2021/03/08 09:10:40;;;;;;;12.23;8.13;;;;;;;;;;5091109;28;20435;-69
2021/03/08 09:13:09;;;;;;;15.90;9.13;;;;;;;;;;5096858;28;20405;-70
2021/03/08 09:15:35;;;;;;;11.40;8.67;;;;;;;;;;5090866;28;20529;-71
2021/03/08 09:18:03;;;;;;;11.23;8.60;;;;;;;;;;5088961;28;20432;-74
2021/03/08 09:20:30;;;;;;;13.53;8.03;;;;;;;;;;5095584;28;20462;-71
2021/03/08 09:22:58;;;;;;;11.90;7.80;;;;;;;;;;5089795;28;20453;-75
2021/03/08 09:25:34;;;;;;;14.57;8.30;;;;;;;;;;5092251;28;20831;-74
2021/03/08 09:28:08;;;;;;;10.10;8.03;;;;;;;;;;5094560;28;20425;-73
2021/03/08 09:30:39;;;;;;;13.77;8.23;;;;;;;;;;5093254;28;20539;-73
2021/03/08 09:33:07;;;;;;;11.53;8.53;;;;;;;;;;5085852;28;20424;-75
2021/03/08 09:35:35;;;;;;;12.97;7.97;;;;;;;;;;5090218;28;20901;-73
2021/03/08 09:38:02;;;;;;;13.10;9.30;;;;;;;;;;5081678;28;20925;-73
2021/03/08 09:40:30;;;;;;;12.43;9.07;;;;;;;;;;5089241;28;20469;-71
2021/03/08 09:42:57;;;;;;;11.57;8.00;;;;;;;;;;5085086;28;20457;-75
2021/03/08 09:45:25;;;;;;;14.77;8.23;;;;;;;;;;5091889;28;20497;-73
2021/03/08 09:47:52;;;;;;;19.53;10.47;;;;;;;;;;5088815;28;20532;-69
2021/03/08 09:50:29;;;;;;;16.03;8.77;;;;;;;;;;5082721;28;20434;-71
2021/03/08 09:52:55;;;;;;;12.67;9.07;;;;;;;;;;5082950;28;20444;-75
2021/03/08 09:55:23;;;;;;;14.30;9.10;;;;;;;;;;5087469;28;21467;-74
2021/03/08 09:57:49;;;;;;;13.50;8.20;;;;;;;;;;5070796;28;21067;-72
2021/03/08 10:00:20;;;;;;;12.13;7.90;;;;;;;;;;5086573;28;20512;-72
2021/03/08 10:02:46;;;;;;;16.63;9.90;;;;;;;;;;5084904;28;20457;-75
2021/03/08 10:05:14;;;;;;;14.48;9.00;;;;;;;;;;5092238;28;20829;-73
2021/03/08 10:07:53;;;;;;;15.53;9.57;;;;;;;;;;5085048;28;20666;-72
2021/03/08 10:10:20;;;;;;;14.00;10.05;;;;;;;;;;5083328;28;20827;-70
2021/03/08 10:12:46;;;;;;;12.70;9.63;;;;;;;;;;5084848;28;20176;-71
2021/03/08 10:15:12;;;;;;;14.00;9.37;;;;;;;;;;5083078;28;20481;-73
2021/03/08 10:17:57;;;;;;;15.67;10.10;;;;;;;;;;5086806;28;20416;-76
2021/03/08 10:20:23;;;;;;;15.17;8.60;;;;;;;;;;5082845;28;20435;-76
2021/03/08 10:22:50;;;;;;;13.10;7.40;;;;;;;;;;5084773;28;20464;-74
2021/03/08 10:25:19;;;;;;;9.77;6.97;;;;;;;;;;5084936;28;20458;-71
2021/03/08 10:27:45;;;;;;;10.90;7.10;;;;;;;;;;5081520;28;20417;-71
2021/03/08 10:30:13;;;;;;;11.20;7.73;;;;;;;;;;5070421;28;20429;-70
2021/03/08 10:32:40;;;;;;;10.23;7.37;;;;;;;;;;5088815;28;20448;-73
2021/03/08 10:35:07;;;;;;;17.40;8.10;;;;;;;;;;5087389;28;20435;-73
2021/03/08 10:37:34;;;;;;;11.77;8.60;;;;;;;;;;5094528;28;20421;-76
2021/03/08 10:40:00;;;;;;;14.80;9.00;;;;;;;;;;5092550;28;20465;-74
2021/03/08 10:42:27;;;;;;;10.00;8.20;;;;;;;;;;5092896;28;20539;-77
2021/03/08 10:44:54;;;;;;;13.77;8.57;;;;;;;;;;5094982;28;20471;-77
2021/03/08 10:47:20;;;;;;;10.03;8.17;;;;;;;;;;5090833;28;20458;-77
2021/03/08 10:49:53;;;;;;;14.40;8.53;;;;;;;;;;5072134;28;20829;-75
2021/03/08 10:52:20;;;;;;;11.93;8.57;;;;;;;;;;5087640;28;20417;-74
2021/03/08 10:54:47;;;;;;;13.23;9.50;;;;;;;;;;5091280;28;20415;-74
2021/03/08 10:57:13;;;;;;;10.70;9.17;;;;;;;;;;5080658;28;20897;-74
2021/03/08 10:59:46;;;;;;;9.93;8.23;;;;;;;;;;5092887;28;20621;-74
2021/03/08 11:02:15;;;;;;;10.83;8.47;;;;;;;;;;5087870;28;20507;-73
2021/03/08 11:04:41;;;;;;;11.50;9.20;;;;;;;;;;5092894;28;20511;-76
2021/03/08 11:07:07;;;;;;;12.87;9.10;;;;;;;;;;5094795;28;20435;-76
2021/03/08 11:09:38;;;;;;;17.73;9.77;;;;;;;;;;5093712;28;20416;-74
2021/03/08 11:12:05;;;;;;;13.33;9.30;;;;;;;;;;5092187;28;20831;-75
2021/03/08 11:14:46;;;;;;;14.13;8.83;;;;;;;;;;5092410;28;20455;-75
2021/03/08 11:17:18;;;;;;;18.63;10.50;;;;;;;;;;5093737;28;20454;-74
2021/03/08 11:19:44;;;;;;;13.43;9.53;;;;;;;;;;5079694;28;20503;-75
2021/03/08 11:22:11;;;;;;;10.53;8.50;;;;;;;;;;5095276;28;20486;-71
2021/03/08 11:24:44;;;;;;;13.23;8.80;;;;;;;;;;5096318;28;20431;-76
2021/03/08 11:27:15;;;;;;;13.47;9.70;;;;;;;;;;5092288;28;20445;-75
2021/03/08 11:29:42;;;;;;;13.10;9.05;;;;;;;;;;5090867;28;20485;-70
2021/03/08 11:32:09;;;;;;;14.27;9.80;;;;;;;;;;5085753;28;20220;-66
2021/03/08 11:34:45;;;;;;;13.63;9.60;;;;;;;;;;5089334;28;20415;-71
2021/03/08 11:37:17;;;;;;;11.17;8.70;;;;;;;;;;5091314;28;20813;-73
2021/03/08 11:39:44;;;;;;;18.80;10.30;;;;;;;;;;5090626;28;20934;-71
2021/03/08 11:42:12;;;;;;;11.67;9.60;;;;;;;;;;5090226;28;20444;-73
2021/03/08 11:44:38;;;;;;;16.73;10.77;;;;;;;;;;5091910;28;20490;-69
2021/03/08 11:47:04;;;;;;;11.20;8.93;;;;;;;;;;5089476;28;20425;-71
2021/03/08 11:49:31;;;;;;;13.13;8.38;;;;;;;;;;5088301;28;21010;-73
2021/03/08 11:51:57;;;;;;;12.90;9.60;;;;;;;;;;5088747;28;20280;-74
2021/03/08 11:54:23;;;;;;;9.93;7.88;;;;;;;;;;5068615;28;20429;-77
2021/03/08 11:56:49;;;;;;;15.10;8.98;;;;;;;;;;5092560;28;20518;-76
2021/03/08 11:59:15;;;;;;;13.80;9.63;;;;;;;;;;5088205;28;20192;-76
2021/03/08 12:01:41;;;;;;;10.87;7.70;;;;;;;;;;5072671;28;20481;-76
2021/03/08 12:04:07;;;;;;;12.03;9.27;;;;;;;;;;5092564;28;20448;-75
2021/03/08 12:06:33;;;;;;;12.37;8.70;;;;;;;;;;5091570;28;20493;-74
2021/03/08 12:08:59;;;;;;;13.00;9.37;;;;;;;;;;5091457;28;20416;-77
2021/03/08 12:11:25;;;;;;;12.60;9.00;;;;;;;;;;5090334;28;20442;-76
2021/03/08 12:13:51;;;;;;;13.90;8.03;;;;;;;;;;5099732;28;20429;-76
2021/03/08 12:16:17;;;;;;;14.30;9.73;;;;;;;;;;5086826;28;20510;-74
2021/03/08 12:18:43;;;;;;;15.50;8.77;;;;;;;;;;5091402;28;20187;-75
2021/03/08 12:21:09;;;;;;;12.70;8.97;;;;;;;;;;5083638;28;20441;-71
2021/03/08 12:23:35;;;;;;;11.23;8.27;;;;;;;;;;5090000;28;20453;-76
2021/03/08 12:26:01;;;;;;;14.63;9.23;;;;;;;;;;5085891;28;20972;-73
2021/03/08 12:28:28;;;;;;;11.68;9.20;;;;;;;;;;5085847;28;20418;-77
2021/03/08 12:30:54;;;;;;;13.83;9.40;;;;;;;;;;5081483;28;20194;-77
2021/03/08 12:33:21;;;;;;;13.60;8.10;;;;;;;;;;5092043;28;20452;-75
2021/03/08 12:35:48;;;;;;;11.00;8.57;;;;;;;;;;5073979;28;20420;-78
2021/03/08 12:38:14;;;;;;;11.97;8.47;;;;;;;;;;5091962;28;20434;-73
2021/03/08 12:40:40;;;;;;;11.40;9.10;;;;;;;;;;5092774;28;20956;-70
2021/03/08 12:43:07;;;;;;;11.50;9.40;;;;;;;;;;5095174;28;20455;-71
2021/03/08 12:45:34;;;;;;;10.80;8.30;;;;;;;;;;5078787;28;20431;-73
2021/03/08 12:48:00;;;;;;;11.93;8.63;;;;;;;;;;5091972;28;20423;-76
2021/03/08 12:50:26;;;;;;;11.00;8.23;;;;;;;;;;5104620;28;20420;-76
2021/03/08 12:52:52;;;;;;;13.63;8.10;;;;;;;;;;5096161;28;20499;-72
2021/03/08 12:55:19;;;;;;;19.70;8.80;;;;;;;;;;5095897;28;20409;-73
2021/03/08 12:57:45;;;;;;;12.27;8.70;;;;;;;;;;5092452;28;20426;-77
2021/03/08 13:00:11;;;;;;;16.07;7.73;;;;;;;;;;5097154;28;20911;-73
2021/03/08 13:02:37;;;;;;;10.97;8.00;;;;;;;;;;5086406;28;20470;-73
2021/03/08 13:05:03;;;;;;;10.03;8.00;;;;;;;;;;5092407;28;20428;-68
2021/03/08 13:07:29;;;;;;;10.73;8.10;;;;;;;;;;5076366;28;20428;-76
2021/03/08 13:09:55;;;;;;;11.30;8.07;;;;;;;;;;5097430;28;21069;-75
2021/03/08 13:12:21;;;;;;;9.50;7.90;;;;;;;;;;5096414;28;20796;-73
2021/03/08 13:14:48;;;;;;;15.87;7.90;;;;;;;;;;5086960;28;20412;-72
2021/03/08 13:17:14;;;;;;;16.80;8.10;;;;;;;;;;5092098;28;20796;-71
2021/03/08 13:19:40;;;;;;;9.90;7.73;;;;;;;;;;5094338;28;20887;-70
2021/03/08 13:22:07;;;;;;;11.73;8.53;;;;;;;;;;5093855;28;20441;-72
2021/03/08 13:24:33;;;;;;;12.50;8.10;;;;;;;;;;5094533;28;20498;-76
2021/03/08 13:27:06;;;;;;;9.53;7.00;;;;;;;;;;5091694;28;20426;-70
2021/03/08 13:29:32;;;;;;;9.40;7.87;;;;;;;;;;5090773;28;20416;-70
2021/03/08 13:31:58;;;;;;;11.67;7.47;;;;;;;;;;5085217;28;20467;-72
2021/03/08 13:34:24;;;;;;;13.23;9.17;;;;;;;;;;5090408;28;20461;-73
2021/03/08 13:36:50;;;;;;;11.83;7.43;;;;;;;;;;5072082;28;20431;-72
2021/03/08 13:39:16;;;;;;;13.77;8.30;;;;;;;;;;5074882;28;20841;-75
2021/03/08 13:41:42;;;;;;;11.27;7.60;;;;;;;;;;5087031;28;20443;-71
2021/03/08 13:44:08;;;;;;;13.73;7.70;;;;;;;;;;5086082;28;20466;-69
2021/03/08 13:46:34;;;;;;;11.50;8.50;;;;;;;;;;5085651;28;20482;-73
2021/03/08 13:49:00;;;;;;;10.93;7.93;;;;;;;;;;5081913;28;20435;-73
2021/03/08 13:51:26;;;;;;;12.80;7.80;;;;;;;;;;5085550;28;20941;-74
2021/03/08 13:53:52;;;;;;;10.43;7.40;;;;;;;;;;5095095;28;20445;-73
2021/03/08 13:56:18;;;;;;;10.53;8.13;;;;;;;;;;5091953;28;20449;-73
2021/03/08 13:58:44;;;;;;;10.27;7.10;;;;;;;;;;5090197;28;20471;-73
2021/03/08 14:01:10;;;;;;;10.05;8.20;;;;;;;;;;5086118;28;20967;-71
2021/03/08 14:03:37;;;;;;;11.20;8.00;;;;;;;;;;5090152;28;20204;-74
2021/03/08 14:06:03;;;;;;;12.33;7.60;;;;;;;;;;5088628;28;20436;-70
2021/03/08 14:08:32;;;;;;;10.00;7.27;;;;;;;;;;5113543;22;20497;-69
2021/03/08 14:10:59;;;;;;;9.27;7.50;;;;;;;;;;5095976;28;20448;-69
2021/03/08 14:13:25;;;;;;;12.17;7.80;;;;;;;;;;5067787;28;20434;-68
2021/03/08 14:15:51;;;;;;;12.60;9.20;;;;;;;;;;5093245;28;20428;-72
2021/03/08 14:18:17;;;;;;;10.87;7.63;;;;;;;;;;5073080;28;20417;-71
2021/03/08 14:20:43;;;;;;;12.97;8.83;;;;;;;;;;5095536;28;21059;-70
2021/03/08 14:23:09;;;;;;;9.60;7.23;;;;;;;;;;5093896;28;20522;-70
2021/03/08 14:25:35;;;;;;;13.30;8.90;;;;;;;;;;5093502;28;20839;-69
2021/03/08 14:28:01;;;;;;;9.70;7.87;;;;;;;;;;5082591;28;20497;-70
2021/03/08 14:30:27;;;;;;;9.20;7.00;;;;;;;;;;5084035;28;20428;-69